Time;durP1;ratioP1;P1;durP2;ratioP2;P2;SDS_P1;SDS_P2;PMS_P1;PMS_P2;Temp;Humidity;BMP_temperature;BMP_pressure;BME280_temperature;BME280_humidity;BME280_pressure;Samples;Min_cycle;Max_cycle;Signal;HPM_P1;HPM_P2
2022/03/24 00:02:22;;;;;;;55.28;36.30;;;8.10;99.90;;;;;;5113308;28;20172;-63
2022/03/24 00:04:48;;;;;;;49.97;34.83;;;8.10;99.90;;;;;;5113233;28;20044;-65
2022/03/24 00:07:14;;;;;;;51.17;36.75;;;8.10;99.90;;;;;;5094365;28;20058;-64
2022/03/24 00:09:40;;;;;;;51.83;36.83;;;8.00;99.90;;;;;;5078516;28;20126;-63
2022/03/24 00:12:06;;;;;;;56.90;36.70;;;8.00;99.90;;;;;;5112642;28;20056;-64
2022/03/24 00:14:33;;;;;;;50.33;36.70;;;8.00;99.90;;;;;;5112989;28;20045;-63
2022/03/24 00:16:58;;;;;;;53.53;37.17;;;7.90;99.90;;;;;;5094693;28;20503;-66
2022/03/24 00:19:25;;;;;;;56.03;39.00;;;7.90;99.90;;;;;;5113148;28;20051;-63
2022/03/24 00:21:51;;;;;;;57.92;40.05;;;7.90;99.90;;;;;;5112911;28;20100;-62
2022/03/24 00:24:17;;;;;;;52.63;36.75;;;7.90;99.90;;;;;;5112375;28;20359;-62
2022/03/24 00:26:43;;;;;;;58.47;38.65;;;7.90;99.90;;;;;;5112813;28;20105;-63
2022/03/24 00:29:09;;;;;;;55.15;37.15;;;7.80;99.90;;;;;;5112332;28;20047;-63
2022/03/24 00:31:35;;;;;;;51.90;37.03;;;7.70;99.90;;;;;;5112330;28;20122;-63
2022/03/24 00:34:01;;;;;;;55.22;38.47;;;7.60;99.90;;;;;;5112262;28;20089;-67
2022/03/24 00:36:27;;;;;;;54.55;38.00;;;7.70;99.90;;;;;;5094503;28;20047;-63
2022/03/24 00:38:55;;;;;;;55.03;39.47;;;7.60;99.90;;;;;;5112622;28;20039;-62
2022/03/24 00:41:22;;;;;;;57.83;37.33;;;7.60;99.90;;;;;;5060854;28;20040;-63
2022/03/24 00:43:48;;;;;;;60.45;38.90;;;7.60;99.90;;;;;;5112703;28;20052;-64
2022/03/24 00:46:16;;;;;;;61.35;41.65;;;7.60;99.90;;;;;;5112089;28;20082;-64
2022/03/24 00:48:42;;;;;;;53.30;37.90;;;7.60;99.90;;;;;;5094357;28;20128;-64
2022/03/24 00:51:07;;;;;;;56.42;38.83;;;7.50;99.90;;;;;;5112160;28;20559;-63
2022/03/24 00:53:33;;;;;;;58.97;39.83;;;7.50;99.90;;;;;;5112362;28;20389;-63
2022/03/24 00:55:59;;;;;;;59.72;39.28;;;7.40;99.90;;;;;;5112291;28;20061;-64
2022/03/24 00:58:25;;;;;;;62.92;40.97;;;7.40;99.90;;;;;;5093818;28;20507;-63
2022/03/24 01:00:54;;;;;;;60.95;40.97;;;7.40;99.90;;;;;;5112277;28;20119;-63
2022/03/24 01:03:20;;;;;;;55.13;39.50;;;7.40;99.90;;;;;;5111466;28;20044;-65
2022/03/24 01:05:47;;;;;;;59.63;40.92;;;7.30;99.90;;;;;;5090435;28;20091;-64
2022/03/24 01:08:14;;;;;;;55.28;38.63;;;7.30;99.90;;;;;;5091408;28;20477;-64
2022/03/24 01:10:39;;;;;;;54.65;36.35;;;7.30;99.90;;;;;;5090649;28;20088;-63
2022/03/24 01:13:05;;;;;;;53.08;37.72;;;7.30;99.90;;;;;;5090287;28;20114;-67
2022/03/24 01:15:31;;;;;;;53.38;36.05;;;7.30;99.90;;;;;;5091806;28;20112;-64
2022/03/24 01:17:59;;;;;;;52.63;36.60;;;7.20;99.90;;;;;;5090631;28;20048;-64
2022/03/24 01:20:27;;;;;;;55.53;36.33;;;7.10;99.90;;;;;;5091232;28;20051;-64
2022/03/24 01:22:53;;;;;;;55.85;37.10;;;7.10;99.90;;;;;;5073509;28;20083;-63
2022/03/24 01:25:19;;;;;;;56.33;38.78;;;7.10;99.90;;;;;;5091029;28;20079;-63
2022/03/24 01:27:45;;;;;;;54.25;37.38;;;7.00;99.90;;;;;;5091503;28;20047;-64
2022/03/24 01:30:11;;;;;;;55.72;35.70;;;7.00;99.90;;;;;;5091076;28;20090;-63
2022/03/24 01:32:37;;;;;;;50.08;34.63;;;7.00;99.90;;;;;;5091618;28;20048;-63
2022/03/24 01:35:07;;;;;;;55.08;36.92;;;6.90;99.90;;;;;;5091456;28;20409;-63
2022/03/24 01:37:34;;;;;;;52.95;36.95;;;6.90;99.90;;;;;;5091194;28;20539;-64
2022/03/24 01:40:00;;;;;;;57.28;36.95;;;7.20;99.90;;;;;;5091706;28;20075;-64
2022/03/24 01:42:26;;;;;;;53.92;37.10;;;6.90;99.90;;;;;;5090961;28;20079;-64
2022/03/24 01:44:54;;;;;;;52.45;37.35;;;7.00;99.90;;;;;;5093996;28;20056;-64
2022/03/24 01:47:19;;;;;;;55.95;38.15;;;6.90;99.90;;;;;;5093937;28;20080;-64
2022/03/24 01:49:50;;;;;;;54.10;36.22;;;6.80;99.90;;;;;;5095620;28;20091;-63
2022/03/24 01:52:18;;;;;;;55.13;36.28;;;6.80;99.90;;;;;;5095006;28;20052;-64
2022/03/24 01:54:51;;;;;;;52.78;36.05;;;6.80;99.90;;;;;;5077180;28;20051;-64
2022/03/24 01:57:18;;;;;;;52.03;35.85;;;6.80;99.90;;;;;;5093786;28;20048;-63
2022/03/24 01:59:44;;;;;;;50.92;34.50;;;6.80;99.90;;;;;;5094112;28;20100;-63
2022/03/24 02:02:11;;;;;;;54.53;35.05;;;6.70;99.90;;;;;;5093645;28;20127;-66
2022/03/24 02:04:37;;;;;;;55.78;37.10;;;6.70;99.90;;;;;;5095214;28;20052;-65
2022/03/24 02:07:05;;;;;;;59.53;38.67;;;6.70;99.90;;;;;;5093817;28;20044;-64
2022/03/24 02:09:32;;;;;;;57.92;38.97;;;6.70;99.90;;;;;;5093290;28;20671;-64
2022/03/24 02:11:58;;;;;;;68.63;43.60;;;6.70;99.90;;;;;;5093693;28;20128;-63
2022/03/24 02:14:23;;;;;;;63.22;40.90;;;6.60;99.90;;;;;;5094559;28;20438;-63
2022/03/24 02:16:50;;;;;;;61.08;40.03;;;6.60;99.90;;;;;;5094781;28;20044;-64
2022/03/24 02:19:23;;;;;;;67.78;40.53;;;6.60;99.90;;;;;;5094106;28;20599;-64
2022/03/24 02:21:50;;;;;;;65.35;42.97;;;6.60;99.90;;;;;;5093379;28;20044;-63
2022/03/24 02:24:18;;;;;;;59.72;41.53;;;6.60;99.90;;;;;;5092752;28;20481;-64
2022/03/24 02:26:45;;;;;;;65.25;41.92;;;6.50;99.90;;;;;;5094604;28;20102;-63
2022/03/24 02:29:13;;;;;;;60.47;40.35;;;6.50;99.90;;;;;;5094457;28;20048;-63
2022/03/24 02:31:47;;;;;;;62.17;41.50;;;6.50;99.90;;;;;;5092879;28;20473;-64
2022/03/24 02:37:01;;;;;;;58.47;39.00;;;6.40;99.90;;;;;;5094264;28;20485;-64
2022/03/24 02:39:28;;;;;;;63.53;41.30;;;6.40;99.90;;;;;;5093603;28;20517;-63
2022/03/24 02:41:56;;;;;;;61.95;39.70;;;6.40;99.90;;;;;;5093575;28;20496;-63
2022/03/24 02:44:24;;;;;;;60.85;41.58;;;6.30;99.90;;;;;;5093330;28;20405;-62
2022/03/24 02:46:53;;;;;;;67.28;41.92;;;6.30;99.90;;;;;;5094081;28;20393;-63
2022/03/24 02:49:24;;;;;;;65.28;42.75;;;6.30;99.90;;;;;;5093758;28;20079;-63
2022/03/24 02:51:51;;;;;;;59.10;39.80;;;6.30;99.90;;;;;;5093803;28;20047;-63
2022/03/24 02:54:18;;;;;;;60.72;41.70;;;6.30;99.90;;;;;;5092533;28;20052;-67
2022/03/24 02:56:44;;;;;;;63.30;42.17;;;6.30;99.90;;;;;;5094060;28;20091;-64
2022/03/24 02:59:10;;;;;;;64.07;42.45;;;6.20;99.90;;;;;;5094055;28;20052;-63
2022/03/24 03:01:44;;;;;;;63.83;42.40;;;6.20;99.90;;;;;;5093295;28;20464;-64
2022/03/24 03:04:10;;;;;;;59.22;40.97;;;6.20;99.90;;;;;;5094317;28;20044;-63
2022/03/24 03:06:39;;;;;;;68.50;42.17;;;6.20;99.90;;;;;;5092129;28;20067;-63
2022/03/24 03:09:06;;;;;;;62.97;41.90;;;6.20;99.90;;;;;;5094133;28;20245;-63
2022/03/24 03:11:32;;;;;;;63.03;41.90;;;6.10;99.90;;;;;;5093516;28;20113;-63
2022/03/24 03:13:59;;;;;;;62.35;40.33;;;6.20;99.90;;;;;;5092776;28;20109;-63
2022/03/24 03:16:25;;;;;;;60.63;39.38;;;6.20;99.90;;;;;;5092306;28;20051;-64
2022/03/24 03:18:51;;;;;;;64.63;41.72;;;6.10;99.90;;;;;;5093904;28;20044;-63
2022/03/24 03:21:17;;;;;;;61.22;40.05;;;6.10;99.90;;;;;;5093747;28;20043;-63
2022/03/24 03:23:44;;;;;;;59.95;40.13;;;6.00;99.90;;;;;;5092005;28;20493;-64
2022/03/24 03:26:11;;;;;;;66.13;43.92;;;6.00;99.90;;;;;;5093416;28;20123;-63
2022/03/24 03:28:37;;;;;;;64.50;43.38;;;6.00;99.90;;;;;;5093207;28;20080;-63
2022/03/24 03:31:05;;;;;;;75.63;48.50;;;6.00;99.90;;;;;;5093565;28;20040;-62
2022/03/24 03:33:31;;;;;;;69.35;46.10;;;6.00;99.90;;;;;;5093098;28;20083;-63
2022/03/24 03:35:58;;;;;;;70.25;44.50;;;6.00;99.90;;;;;;5093294;28;20079;-63
2022/03/24 03:38:24;;;;;;;72.32;44.97;;;6.00;99.90;;;;;;5091840;28;20127;-63
2022/03/24 03:40:52;;;;;;;64.90;42.03;;;6.00;99.90;;;;;;5093414;28;20048;-63
2022/03/24 03:43:18;;;;;;;63.75;42.67;;;6.00;99.90;;;;;;5093072;28;20119;-63
2022/03/24 03:45:44;;;;;;;69.57;41.50;;;6.00;99.90;;;;;;5092853;28;20127;-63
2022/03/24 03:48:11;;;;;;;68.25;44.78;;;6.20;99.90;;;;;;5093006;28;20089;-63
2022/03/24 03:50:37;;;;;;;68.10;43.90;;;6.00;99.90;;;;;;5092489;28;20048;-63
2022/03/24 03:53:03;;;;;;;76.22;45.50;;;6.00;99.90;;;;;;5091551;28;20081;-64
2022/03/24 03:55:29;;;;;;;70.82;44.60;;;6.00;99.90;;;;;;5092237;28;20044;-63
2022/03/24 03:57:55;;;;;;;69.82;44.92;;;6.00;99.90;;;;;;5092651;28;20528;-64
2022/03/24 04:03:05;;;;;;;69.68;44.15;;;6.00;99.90;;;;;;5092640;28;20052;-64
2022/03/24 04:05:32;;;;;;;66.85;44.42;;;6.00;99.90;;;;;;5097909;28;20056;-64
2022/03/24 04:07:58;;;;;;;69.70;44.65;;;6.10;99.90;;;;;;5094880;28;20052;-64
2022/03/24 04:10:26;;;;;;;67.43;43.50;;;5.90;99.90;;;;;;5094921;28;20051;-67
2022/03/24 04:12:52;;;;;;;67.55;44.53;;;5.90;99.90;;;;;;5113060;28;20043;-64
2022/03/24 04:15:18;;;;;;;66.63;44.13;;;5.90;99.90;;;;;;5094772;28;20092;-63
2022/03/24 04:17:44;;;;;;;73.47;45.22;;;5.90;99.90;;;;;;5112756;28;20123;-64
2022/03/24 04:20:12;;;;;;;76.20;46.78;;;5.90;99.90;;;;;;5094386;28;20699;-64
2022/03/24 04:22:37;;;;;;;73.88;47.28;;;5.80;99.90;;;;;;5112326;28;20051;-64
2022/03/24 04:25:05;;;;;;;75.25;46.65;;;5.80;99.90;;;;;;5094768;28;20133;-65
2022/03/24 04:27:31;;;;;;;70.13;45.70;;;5.80;99.90;;;;;;5112384;28;20147;-64
2022/03/24 04:29:56;;;;;;;71.97;44.40;;;5.80;99.90;;;;;;5112482;28;20156;-65
2022/03/24 04:32:22;;;;;;;63.53;44.70;;;5.80;99.90;;;;;;5077739;28;20043;-64
2022/03/24 04:34:48;;;;;;;73.47;45.15;;;5.80;99.90;;;;;;5112128;28;20239;-65
2022/03/24 04:37:15;;;;;;;73.75;46.35;;;5.80;99.90;;;;;;5094678;28;20495;-64
2022/03/24 04:39:41;;;;;;;69.80;44.13;;;5.90;99.90;;;;;;5093691;28;20058;-64
2022/03/24 04:42:08;;;;;;;67.20;44.10;;;5.70;99.90;;;;;;5112385;28;20039;-64
2022/03/24 04:44:34;;;;;;;68.63;44.10;;;5.70;99.90;;;;;;5093983;28;20056;-64
2022/03/24 04:47:00;;;;;;;66.90;44.25;;;5.70;99.90;;;;;;5112484;28;20094;-64
2022/03/24 04:49:28;;;;;;;66.15;44.53;;;5.70;99.90;;;;;;5094230;28;20043;-64
2022/03/24 04:51:55;;;;;;;66.60;43.10;;;5.60;99.90;;;;;;5094009;28;20050;-64
2022/03/24 04:54:20;;;;;;;64.20;40.47;;;5.60;99.90;;;;;;5093869;28;20050;-63
2022/03/24 04:56:46;;;;;;;65.40;43.85;;;5.60;99.90;;;;;;5111806;28;20384;-64
2022/03/24 04:59:12;;;;;;;65.55;42.50;;;5.60;99.90;;;;;;5112370;28;20122;-64
2022/03/24 05:01:38;;;;;;;69.55;43.55;;;5.60;99.90;;;;;;5111657;28;20039;-64
2022/03/24 05:04:07;;;;;;;68.68;44.53;;;5.60;99.90;;;;;;5111910;28;20137;-64
2022/03/24 05:06:34;;;;;;;69.50;44.60;;;5.50;99.90;;;;;;5089651;28;20059;-67
2022/03/24 05:09:00;;;;;;;68.65;45.63;;;5.50;99.90;;;;;;5090594;28;20063;-64
2022/03/24 05:11:25;;;;;;;73.82;46.95;;;5.60;99.90;;;;;;5090455;28;20048;-64
2022/03/24 05:13:51;;;;;;;69.97;44.85;;;5.50;99.90;;;;;;5089942;28;20032;-65
2022/03/24 05:16:18;;;;;;;72.38;46.58;;;5.50;99.90;;;;;;5091762;28;20040;-63
2022/03/24 05:18:44;;;;;;;74.85;47.08;;;5.50;99.90;;;;;;5091167;28;20495;-64
2022/03/24 05:21:10;;;;;;;72.13;45.60;;;5.50;99.90;;;;;;5090232;28;20127;-63
2022/03/24 05:23:36;;;;;;;69.15;44.33;;;5.50;99.90;;;;;;5090047;28;20093;-67
2022/03/24 05:26:02;;;;;;;70.15;44.08;;;5.60;99.90;;;;;;5091218;28;20048;-64
2022/03/24 05:28:28;;;;;;;71.30;45.97;;;5.50;99.90;;;;;;5091195;28;20088;-63
2022/03/24 05:30:54;;;;;;;67.82;44.05;;;5.50;99.90;;;;;;5089684;28;20131;-63
2022/03/24 05:33:19;;;;;;;66.35;43.38;;;5.50;99.90;;;;;;5090980;28;20040;-63
2022/03/24 05:35:45;;;;;;;70.97;45.30;;;5.50;99.90;;;;;;5090597;28;20059;-63
2022/03/24 05:38:11;;;;;;;66.50;43.75;;;5.60;99.90;;;;;;5091339;28;20390;-64
2022/03/24 05:40:36;;;;;;;70.63;44.95;;;5.50;99.90;;;;;;5091113;28;20048;-66
2022/03/24 05:43:03;;;;;;;72.00;44.67;;;5.50;99.90;;;;;;5090863;28;20040;-64
2022/03/24 05:45:28;;;;;;;72.32;45.63;;;5.50;99.90;;;;;;5090061;28;20545;-64
2022/03/24 05:47:54;;;;;;;71.28;44.67;;;5.50;99.90;;;;;;5090733;28;20130;-64
2022/03/24 05:50:20;;;;;;;70.25;44.47;;;5.50;99.90;;;;;;5073337;28;20052;-64
2022/03/24 05:52:49;;;;;;;73.10;44.67;;;5.50;99.90;;;;;;5089579;28;20040;-64
2022/03/24 05:55:16;;;;;;;71.32;45.00;;;5.60;99.90;;;;;;5091016;28;20460;-63
2022/03/24 05:57:44;;;;;;;66.97;43.20;;;5.60;99.90;;;;;;5072993;28;20124;-64
2022/03/24 06:00:12;;;;;;;64.90;42.80;;;6.00;99.90;;;;;;5089666;28;20082;-63
2022/03/24 06:02:38;;;;;;;70.40;42.75;;;5.80;99.90;;;;;;5090756;28;20066;-64
2022/03/24 06:05:05;;;;;;;63.75;41.40;;;6.00;99.90;;;;;;5090669;28;20040;-63
2022/03/24 06:07:33;;;;;;;72.90;43.35;;;6.00;99.90;;;;;;5107396;28;20056;-63
2022/03/24 06:09:58;;;;;;;72.65;44.28;;;6.00;99.90;;;;;;5110897;28;20052;-66
2022/03/24 06:12:25;;;;;;;69.05;44.60;;;6.10;99.90;;;;;;5111262;28;20039;-62
2022/03/24 06:14:51;;;;;;;74.18;44.55;;;6.10;99.90;;;;;;5092628;28;20569;-65
2022/03/24 06:17:20;;;;;;;65.30;42.97;;;6.10;99.90;;;;;;5111404;28;20046;-63
2022/03/24 06:19:47;;;;;;;68.47;43.75;;;6.20;99.90;;;;;;5093325;28;20051;-62
2022/03/24 06:22:14;;;;;;;71.35;44.83;;;6.20;99.90;;;;;;5111347;28;20051;-65
2022/03/24 06:24:39;;;;;;;72.35;44.28;;;6.30;99.90;;;;;;5111039;28;20075;-63
2022/03/24 06:27:05;;;;;;;66.75;41.92;;;6.40;99.90;;;;;;5110674;28;20112;-63
2022/03/24 06:29:31;;;;;;;66.40;43.13;;;6.40;99.90;;;;;;5112757;28;20083;-63
2022/03/24 06:31:57;;;;;;;62.85;41.65;;;6.50;99.90;;;;;;5114519;28;20046;-63
2022/03/24 06:34:25;;;;;;;68.50;45.25;;;6.70;99.90;;;;;;5079923;28;20086;-63
2022/03/24 06:36:51;;;;;;;73.63;45.25;;;6.60;99.90;;;;;;5114379;28;20040;-63
2022/03/24 06:39:17;;;;;;;73.63;44.67;;;6.60;99.90;;;;;;5114574;28;20473;-64
2022/03/24 06:41:43;;;;;;;68.75;43.75;;;6.70;99.90;;;;;;5114867;28;20044;-63
2022/03/24 06:44:10;;;;;;;69.68;45.05;;;6.80;99.90;;;;;;5079368;28;20089;-65
2022/03/24 06:46:36;;;;;;;67.60;44.38;;;7.00;99.90;;;;;;5079699;28;20083;-63
2022/03/24 06:49:03;;;;;;;62.35;42.45;;;7.10;99.90;;;;;;5114323;28;20044;-63
2022/03/24 06:51:30;;;;;;;70.05;46.78;;;7.20;99.90;;;;;;5114837;28;20146;-64
2022/03/24 06:53:56;;;;;;;77.30;46.05;;;7.30;99.90;;;;;;5114170;28;20052;-63
2022/03/24 06:56:22;;;;;;;72.18;46.10;;;7.40;99.90;;;;;;5114539;28;20047;-63
2022/03/24 06:58:47;;;;;;;71.03;46.90;;;7.80;99.90;;;;;;5114080;28;20054;-68
2022/03/24 07:01:13;;;;;;;69.90;46.22;;;8.20;99.90;;;;;;5114248;28;20043;-62
2022/03/24 07:03:40;;;;;;;63.55;43.60;;;8.70;99.90;;;;;;5096255;28;20093;-63
2022/03/24 07:06:06;;;;;;;68.55;46.53;;;9.20;99.90;;;;;;5113441;28;20091;-62
2022/03/24 07:08:32;;;;;;;71.05;47.80;;;9.70;99.90;;;;;;5113772;28;20134;-63
2022/03/24 07:10:58;;;;;;;73.07;45.45;;;10.00;99.90;;;;;;5113429;28;20126;-65
2022/03/24 07:13:24;;;;;;;69.28;45.90;;;10.20;99.90;;;;;;5114155;28;20051;-62
2022/03/24 07:15:50;;;;;;;68.30;46.10;;;10.50;99.90;;;;;;5095551;28;20043;-68
2022/03/24 07:18:16;;;;;;;63.05;44.97;;;10.90;99.90;;;;;;5095430;28;20485;-62
2022/03/24 07:20:42;;;;;;;63.25;46.67;;;11.30;99.90;;;;;;5113709;28;20043;-63
2022/03/24 07:23:09;;;;;;;61.50;43.40;;;11.70;99.90;;;;;;5113387;28;20035;-63
2022/03/24 07:25:36;;;;;;;62.95;45.30;;;12.10;99.90;;;;;;5095368;28;20126;-64
2022/03/24 07:28:05;;;;;;;49.17;35.83;;;12.50;99.90;;;;;;5113201;28;20501;-62
2022/03/24 07:30:31;;;;;;;43.45;32.00;;;12.70;99.90;;;;;;5113812;28;20044;-63
2022/03/24 07:32:59;;;;;;;45.95;33.83;;;12.90;99.90;;;;;;5113392;28;20047;-63
2022/03/24 07:35:24;;;;;;;46.33;35.00;;;13.30;99.90;;;;;;5113778;28;20118;-62
2022/03/24 07:37:51;;;;;;;46.20;33.05;;;13.60;99.90;;;;;;5113618;28;20142;-68
2022/03/24 07:40:18;;;;;;;47.70;38.00;;;13.80;99.90;;;;;;5113106;28;20108;-62
2022/03/24 07:42:45;;;;;;;49.63;38.08;;;14.20;99.90;;;;;;5113163;28;20043;-62
2022/03/24 07:45:12;;;;;;;53.88;40.38;;;14.60;99.90;;;;;;5113059;28;20114;-62
2022/03/24 07:48:03;;;;;;;53.72;42.92;;;15.00;99.90;;;;;;5095140;28;20044;-62
2022/03/24 07:50:29;;;;;;;51.92;42.20;;;15.30;99.90;;;;;;5113537;28;20043;-63
2022/03/24 07:53:03;;;;;;;53.13;43.30;;;15.40;99.90;;;;;;5112869;28;20092;-65
2022/03/24 07:55:30;;;;;;;54.40;42.45;;;15.80;99.90;;;;;;5113378;28;20054;-64
2022/03/24 07:57:55;;;;;;;57.13;44.60;;;16.30;99.90;;;;;;5112962;28;20047;-69
2022/03/24 08:00:22;;;;;;;56.38;43.40;;;16.80;99.60;;;;;;5113289;28;20066;-65
2022/03/24 08:02:52;;;;;;;54.35;44.20;;;17.30;98.80;;;;;;5094926;28;20492;-64
2022/03/24 08:05:18;;;;;;;53.13;42.00;;;17.70;97.60;;;;;;5093563;28;20481;-66
2022/03/24 08:07:45;;;;;;;48.15;41.03;;;18.00;96.90;;;;;;5113117;28;20059;-64
2022/03/24 08:10:11;;;;;;;52.05;42.67;;;18.30;96.10;;;;;;5112233;28;20093;-64
2022/03/24 08:12:37;;;;;;;51.05;42.33;;;18.70;94.90;;;;;;5112898;28;20122;-65
2022/03/24 08:15:03;;;;;;;56.60;43.42;;;18.90;94.80;;;;;;5094589;28;20036;-65
2022/03/24 08:17:29;;;;;;;49.38;41.85;;;19.10;94.30;;;;;;5094697;28;20044;-64
2022/03/24 08:19:54;;;;;;;50.55;41.83;;;19.00;93.10;;;;;;5094325;28;20051;-64
2022/03/24 08:22:20;;;;;;;53.08;42.88;;;19.20;93.30;;;;;;5111621;28;20039;-65
2022/03/24 08:24:46;;;;;;;48.60;41.63;;;19.40;93.70;;;;;;5112551;28;20458;-64
2022/03/24 08:27:12;;;;;;;47.83;40.35;;;19.50;91.90;;;;;;5112077;28;20043;-66
2022/03/24 08:29:40;;;;;;;51.45;43.35;;;19.10;92.00;;;;;;5112655;28;20046;-65
2022/03/24 08:32:06;;;;;;;47.28;40.67;;;19.30;91.90;;;;;;5094303;28;20044;-65
2022/03/24 08:34:32;;;;;;;46.42;39.72;;;19.40;91.70;;;;;;5112585;28;20393;-65
2022/03/24 08:36:57;;;;;;;47.03;40.97;;;19.80;91.00;;;;;;5094375;28;20050;-69
2022/03/24 08:39:23;;;;;;;46.85;41.03;;;20.10;90.60;;;;;;5112201;28;20043;-65
2022/03/24 08:41:49;;;;;;;51.33;40.47;;;20.40;89.30;;;;;;5112440;28;20040;-64
2022/03/24 08:44:15;;;;;;;52.47;39.25;;;20.60;89.40;;;;;;5094036;28;20142;-64
2022/03/24 08:46:40;;;;;;;48.25;40.25;;;20.50;88.60;;;;;;5077669;28;20084;-64
2022/03/24 08:49:06;;;;;;;47.50;39.60;;;20.60;87.80;;;;;;5111596;28;20043;-65
2022/03/24 08:51:32;;;;;;;46.40;39.65;;;20.60;86.10;;;;;;5112216;28;20046;-66
2022/03/24 08:53:58;;;;;;;48.72;39.97;;;20.60;85.80;;;;;;5112110;28;20443;-65
2022/03/24 08:56:23;;;;;;;45.80;38.70;;;20.90;84.60;;;;;;5093702;28;20090;-64
2022/03/24 08:58:50;;;;;;;47.15;39.85;;;20.80;84.00;;;;;;5112414;28;20047;-64
2022/03/24 09:01:15;;;;;;;48.13;42.75;;;20.60;85.10;;;;;;5111656;28;20051;-65
2022/03/24 09:03:41;;;;;;;48.63;43.35;;;20.90;85.40;;;;;;5093978;28;20067;-69
2022/03/24 09:06:07;;;;;;;46.03;39.78;;;21.10;85.20;;;;;;5111553;28;20505;-64
2022/03/24 09:08:34;;;;;;;48.75;39.97;;;21.50;84.70;;;;;;5112066;28;20077;-64
2022/03/24 09:11:00;;;;;;;48.53;41.13;;;21.80;83.40;;;;;;5109465;28;20078;-63
2022/03/24 09:13:26;;;;;;;46.35;40.33;;;22.10;82.60;;;;;;5110399;28;20419;-63
2022/03/24 09:15:52;;;;;;;46.83;39.42;;;22.40;81.60;;;;;;5110009;28;20055;-64
2022/03/24 09:18:18;;;;;;;46.90;40.63;;;22.70;80.10;;;;;;5093034;28;20054;-64
2022/03/24 09:20:43;;;;;;;47.45;40.05;;;22.50;80.20;;;;;;5092263;28;20496;-63
2022/03/24 09:23:09;;;;;;;45.58;39.85;;;22.40;79.60;;;;;;5110188;28;20389;-64
2022/03/24 09:25:35;;;;;;;45.78;39.42;;;22.20;79.30;;;;;;5110779;28;20047;-64
2022/03/24 09:28:01;;;;;;;44.30;38.13;;;21.40;79.20;;;;;;5111062;28;20064;-64
2022/03/24 09:30:27;;;;;;;47.97;40.72;;;20.40;80.80;;;;;;5109656;28;20403;-63
2022/03/24 09:32:52;;;;;;;48.15;39.40;;;19.60;82.40;;;;;;5110040;28;20108;-63
2022/03/24 09:35:18;;;;;;;47.83;39.03;;;18.80;83.30;;;;;;5091490;28;20066;-64
2022/03/24 09:37:45;;;;;;;49.70;39.85;;;18.40;85.30;;;;;;5092095;28;20040;-63
2022/03/24 09:40:12;;;;;;;49.08;40.05;;;18.20;86.80;;;;;;5109940;28;20044;-63
2022/03/24 09:42:39;;;;;;;48.00;40.42;;;18.30;87.90;;;;;;5075663;28;20040;-63
2022/03/24 09:45:06;;;;;;;52.65;40.20;;;18.20;88.20;;;;;;5109737;28;20159;-64
2022/03/24 09:47:33;;;;;;;52.67;41.40;;;18.10;88.20;;;;;;5091804;28;20497;-64
2022/03/24 09:50:00;;;;;;;50.92;39.28;;;17.90;89.50;;;;;;5110190;28;20067;-65
2022/03/24 09:52:26;;;;;;;52.35;39.13;;;17.80;90.70;;;;;;5109490;28;20071;-68
2022/03/24 09:54:52;;;;;;;51.38;42.38;;;17.80;90.80;;;;;;5071879;28;20083;-64
2022/03/24 09:57:20;;;;;;;51.47;40.38;;;17.60;90.90;;;;;;5108205;28;20052;-67
2022/03/24 09:59:45;;;;;;;47.28;39.10;;;17.50;91.00;;;;;;5110091;28;20101;-62
2022/03/24 10:02:12;;;;;;;53.25;40.22;;;17.40;91.20;;;;;;5109086;28;20086;-62
2022/03/24 10:04:57;;;;;;;53.00;41.45;;;17.30;91.60;;;;;;5111968;28;20043;-67
2022/03/24 10:07:28;;;;;;;51.03;40.88;;;17.40;91.90;;;;;;5113294;28;20059;-65
2022/03/24 10:09:56;;;;;;;50.17;40.53;;;17.30;92.00;;;;;;5114844;28;20051;-64
2022/03/24 10:12:30;;;;;;;50.72;40.72;;;17.50;92.10;;;;;;5113774;28;20051;-64
2022/03/24 10:15:10;;;;;;;49.28;37.60;;;17.70;92.00;;;;;;5096535;28;20051;-65
2022/03/24 10:17:37;;;;;;;51.72;40.13;;;17.80;90.70;;;;;;5114171;28;20050;-66
2022/03/24 10:20:08;;;;;;;54.72;41.92;;;17.70;91.60;;;;;;5114276;28;20333;-65
2022/03/24 10:22:35;;;;;;;49.80;39.90;;;17.80;92.30;;;;;;5095431;28;20043;-66
2022/03/24 10:25:18;;;;;;;49.92;39.35;;;17.70;91.90;;;;;;5096617;28;20545;-65
2022/03/24 10:27:50;;;;;;;49.10;37.50;;;17.50;92.10;;;;;;5096274;28;20123;-66
2022/03/24 10:30:15;;;;;;;49.65;38.70;;;17.60;91.40;;;;;;5113935;28;20048;-64
2022/03/24 10:32:55;;;;;;;49.28;39.50;;;17.60;91.80;;;;;;5113581;28;20052;-68
2022/03/24 10:35:21;;;;;;;49.78;37.78;;;17.60;92.50;;;;;;5114101;28;20047;-68
2022/03/24 10:37:49;;;;;;;49.03;35.33;;;17.60;92.30;;;;;;5112849;28;20051;-65
2022/03/24 10:40:15;;;;;;;48.00;34.53;;;17.50;90.00;;;;;;5077151;28;20055;-65
2022/03/24 10:42:41;;;;;;;49.45;36.05;;;17.40;87.00;;;;;;5078346;28;20064;-65
2022/03/24 10:45:19;;;;;;;49.38;36.00;;;17.50;88.40;;;;;;5095121;28;20392;-65
2022/03/24 10:47:46;;;;;;;50.00;36.63;;;17.50;90.80;;;;;;5078959;28;20086;-65
2022/03/24 10:50:39;;;;;;;49.17;34.28;;;17.50;90.40;;;;;;5113799;28;20120;-63
2022/03/24 10:53:07;;;;;;;44.28;31.98;;;17.70;87.80;;;;;;5113327;28;20473;-65
2022/03/24 10:55:35;;;;;;;42.72;31.00;;;17.80;86.20;;;;;;5113298;28;20044;-64
2022/03/24 10:58:07;;;;;;;40.17;31.92;;;18.00;87.20;;;;;;5113429;28;20043;-63
2022/03/24 11:00:32;;;;;;;41.88;31.88;;;17.90;86.30;;;;;;5113048;28;20083;-65
2022/03/24 11:02:59;;;;;;;45.30;32.35;;;18.00;85.10;;;;;;5113407;28;20087;-63
2022/03/24 11:05:25;;;;;;;40.00;28.17;;;17.80;85.80;;;;;;5113352;28;20058;-62
2022/03/24 11:07:52;;;;;;;35.72;26.20;;;17.70;83.20;;;;;;5094763;28;20055;-65
2022/03/24 11:10:19;;;;;;;37.78;29.65;;;17.70;80.90;;;;;;5095128;28;20044;-66
2022/03/24 11:12:47;;;;;;;46.83;31.45;;;17.60;81.60;;;;;;5095473;28;20400;-63
2022/03/24 11:15:13;;;;;;;45.47;34.65;;;17.50;84.00;;;;;;5095246;28;20054;-64
2022/03/24 11:17:40;;;;;;;46.92;32.47;;;17.50;85.20;;;;;;5112843;28;20619;-65
2022/03/24 11:20:13;;;;;;;44.40;28.40;;;17.60;85.50;;;;;;5094561;28;20572;-67
2022/03/24 11:22:54;;;;;;;40.85;30.17;;;17.70;83.30;;;;;;5094500;28;20576;-63
2022/03/24 11:25:22;;;;;;;47.03;34.13;;;17.80;83.60;;;;;;5112909;28;20044;-68
2022/03/24 11:27:49;;;;;;;43.70;34.03;;;17.80;84.30;;;;;;5095317;28;20043;-63
2022/03/24 11:30:16;;;;;;;47.80;33.35;;;17.70;85.20;;;;;;5112954;28;20059;-67
2022/03/24 11:32:44;;;;;;;45.95;33.20;;;17.70;84.30;;;;;;5111792;28;20044;-64
2022/03/24 11:35:10;;;;;;;46.33;33.10;;;17.80;85.50;;;;;;5113964;28;20050;-64
2022/03/24 11:37:37;;;;;;;45.13;33.80;;;17.70;85.20;;;;;;5114367;28;20062;-65
2022/03/24 11:40:15;;;;;;;44.47;33.08;;;17.70;86.30;;;;;;5113861;28;20043;-64
2022/03/24 11:42:59;;;;;;;47.50;33.97;;;17.50;85.50;;;;;;5113298;28;20039;-65
2022/03/24 11:45:50;;;;;;;46.33;32.88;;;17.50;87.00;;;;;;5113374;28;20051;-63
2022/03/24 11:48:18;;;;;;;46.15;33.50;;;17.40;86.70;;;;;;5095720;28;20138;-63
2022/03/24 11:50:52;;;;;;;43.38;30.35;;;17.40;85.40;;;;;;5113471;28;20054;-63
2022/03/24 11:53:23;;;;;;;42.13;31.95;;;17.50;84.80;;;;;;5113747;28;20031;-62
2022/03/24 11:56:04;;;;;;;43.05;31.85;;;17.40;84.60;;;;;;5113156;28;20131;-62
2022/03/24 11:58:45;;;;;;;37.85;29.67;;;17.40;83.70;;;;;;5094468;28;20511;-62
2022/03/24 12:01:19;;;;;;;42.10;29.60;;;17.30;83.70;;;;;;5113580;28;20048;-64
2022/03/24 12:03:54;;;;;;;38.35;29.35;;;17.50;83.20;;;;;;5112594;28;20048;-64
2022/03/24 12:06:46;;;;;;;39.05;28.05;;;17.50;83.80;;;;;;5113152;28;20418;-62
2022/03/24 12:09:16;;;;;;;41.85;28.88;;;17.60;82.10;;;;;;5095279;28;20067;-63
2022/03/24 12:11:46;;;;;;;41.35;27.67;;;17.70;81.40;;;;;;5112673;28;20420;-61
2022/03/24 12:14:13;;;;;;;39.38;28.33;;;17.70;80.60;;;;;;5112986;28;20097;-61
2022/03/24 12:16:42;;;;;;;40.72;29.20;;;17.60;81.30;;;;;;5112659;28;20048;-62
2022/03/24 12:19:41;;;;;;;43.90;31.48;;;17.60;83.40;;;;;;5113139;28;20048;-63
2022/03/24 12:22:26;;;;;;;42.45;30.30;;;17.50;83.80;;;;;;5112953;28;20441;-64
2022/03/24 12:25:01;;;;;;;38.58;26.83;;;17.50;83.60;;;;;;5094823;28;20044;-63
2022/03/24 12:27:28;;;;;;;41.50;32.65;;;17.40;81.10;;;;;;5112187;28;20083;-63
2022/03/24 12:30:15;;;;;;;43.95;31.77;;;17.40;82.90;;;;;;5112781;28;20044;-63
2022/03/24 12:32:43;;;;;;;40.45;30.92;;;17.30;83.70;;;;;;5112441;28;20090;-63
2022/03/24 12:35:29;;;;;;;42.80;30.42;;;17.40;81.90;;;;;;5112812;28;20043;-64
2022/03/24 12:37:55;;;;;;;38.38;27.35;;;17.40;81.60;;;;;;5094484;28;20092;-63
2022/03/24 12:40:21;;;;;;;40.67;28.30;;;17.50;81.10;;;;;;5094639;28;20426;-63
2022/03/24 12:42:53;;;;;;;38.38;28.00;;;17.50;79.40;;;;;;5112210;28;20096;-62